sensor_id;sensor_type;location;lat;lon;timestamp;P1;durP1;ratioP1;P2;durP2;ratioP2
21901;SDS011;11115;46.038;14.612;2023-03-23T00:02:12;2.93;;;1.57;;
21901;SDS011;11115;46.038;14.612;2023-03-23T00:04:42;2.50;;;1.50;;
21901;SDS011;11115;46.038;14.612;2023-03-23T00:07:15;1.70;;;1.20;;
21901;SDS011;11115;46.038;14.612;2023-03-23T00:09:50;3.27;;;0.90;;
21901;SDS011;11115;46.038;14.612;2023-03-23T00:12:25;4.27;;;2.00;;
21901;SDS011;11115;46.038;14.612;2023-03-23T00:15:10;2.10;;;1.50;;
21901;SDS011;11115;46.038;14.612;2023-03-23T00:17:43;2.55;;;1.67;;
21901;SDS011;11115;46.038;14.612;2023-03-23T00:20:13;1.90;;;1.38;;
21901;SDS011;11115;46.038;14.612;2023-03-23T00:22:45;2.03;;;1.50;;
21901;SDS011;11115;46.038;14.612;2023-03-23T00:25:14;3.17;;;1.20;;
21901;SDS011;11115;46.038;14.612;2023-03-23T00:27:56;4.60;;;1.37;;
21901;SDS011;11115;46.038;14.612;2023-03-23T00:30:25;4.00;;;1.40;;
21901;SDS011;11115;46.038;14.612;2023-03-23T00:33:00;1.23;;;1.00;;
21901;SDS011;11115;46.038;14.612;2023-03-23T00:35:40;1.73;;;0.70;;
21901;SDS011;11115;46.038;14.612;2023-03-23T00:38:14;4.13;;;1.27;;
21901;SDS011;11115;46.038;14.612;2023-03-23T00:40:46;2.10;;;1.20;;
21901;SDS011;11115;46.038;14.612;2023-03-23T00:43:16;2.40;;;1.30;;
21901;SDS011;11115;46.038;14.612;2023-03-23T00:45:45;3.93;;;1.80;;
21901;SDS011;11115;46.038;14.612;2023-03-23T00:48:19;2.07;;;1.37;;
21901;SDS011;11115;46.038;14.612;2023-03-23T00:50:48;3.03;;;1.87;;
21901;SDS011;11115;46.038;14.612;2023-03-23T00:53:21;4.43;;;1.90;;
21901;SDS011;11115;46.038;14.612;2023-03-23T00:55:58;7.30;;;2.27;;
21901;SDS011;11115;46.038;14.612;2023-03-23T00:58:28;3.45;;;2.00;;
21901;SDS011;11115;46.038;14.612;2023-03-23T01:00:57;5.60;;;2.43;;
21901;SDS011;11115;46.038;14.612;2023-03-23T01:03:24;9.23;;;1.90;;
21901;SDS011;11115;46.038;14.612;2023-03-23T01:06:10;6.93;;;2.37;;
21901;SDS011;11115;46.038;14.612;2023-03-23T01:08:44;5.38;;;2.30;;
21901;SDS011;11115;46.038;14.612;2023-03-23T01:11:28;3.57;;;1.83;;
21901;SDS011;11115;46.038;14.612;2023-03-23T01:13:57;4.97;;;2.50;;
21901;SDS011;11115;46.038;14.612;2023-03-23T01:16:29;5.70;;;2.10;;
21901;SDS011;11115;46.038;14.612;2023-03-23T01:18:56;4.60;;;2.37;;
21901;SDS011;11115;46.038;14.612;2023-03-23T01:21:27;7.93;;;3.77;;
21901;SDS011;11115;46.038;14.612;2023-03-23T01:23:56;5.20;;;2.40;;
21901;SDS011;11115;46.038;14.612;2023-03-23T01:26:25;4.13;;;2.70;;
21901;SDS011;11115;46.038;14.612;2023-03-23T01:28:54;6.77;;;3.07;;
21901;SDS011;11115;46.038;14.612;2023-03-23T01:31:26;9.13;;;2.60;;
21901;SDS011;11115;46.038;14.612;2023-03-23T01:33:54;5.67;;;2.50;;
21901;SDS011;11115;46.038;14.612;2023-03-23T01:36:26;6.73;;;2.97;;
21901;SDS011;11115;46.038;14.612;2023-03-23T01:39:03;4.07;;;2.50;;
21901;SDS011;11115;46.038;14.612;2023-03-23T01:41:33;3.83;;;2.40;;
21901;SDS011;11115;46.038;14.612;2023-03-23T01:44:08;5.43;;;2.70;;
21901;SDS011;11115;46.038;14.612;2023-03-23T01:47:05;6.33;;;3.40;;
21901;SDS011;11115;46.038;14.612;2023-03-23T01:49:36;9.75;;;3.67;;
21901;SDS011;11115;46.038;14.612;2023-03-23T01:52:10;7.13;;;2.47;;
21901;SDS011;11115;46.038;14.612;2023-03-23T01:54:50;9.95;;;2.92;;
21901;SDS011;11115;46.038;14.612;2023-03-23T01:57:30;3.07;;;1.97;;
21901;SDS011;11115;46.038;14.612;2023-03-23T02:00:02;7.43;;;2.13;;
21901;SDS011;11115;46.038;14.612;2023-03-23T02:05:36;4.35;;;2.05;;
21901;SDS011;11115;46.038;14.612;2023-03-23T02:08:16;4.25;;;1.40;;
21901;SDS011;11115;46.038;14.612;2023-03-23T02:10:45;2.83;;;1.60;;
21901;SDS011;11115;46.038;14.612;2023-03-23T02:13:35;4.40;;;1.90;;
21901;SDS011;11115;46.038;14.612;2023-03-23T02:28:38;5.83;;;1.77;;
21901;SDS011;11115;46.038;14.612;2023-03-23T02:34:37;2.97;;;1.83;;
21901;SDS011;11115;46.038;14.612;2023-03-23T02:37:13;1.97;;;1.37;;
21901;SDS011;11115;46.038;14.612;2023-03-23T02:40:03;3.57;;;2.07;;
21901;SDS011;11115;46.038;14.612;2023-03-23T02:42:53;2.63;;;1.90;;
21901;SDS011;11115;46.038;14.612;2023-03-23T02:45:27;2.87;;;1.90;;
21901;SDS011;11115;46.038;14.612;2023-03-23T02:48:13;3.37;;;1.97;;
21901;SDS011;11115;46.038;14.612;2023-03-23T02:50:47;4.77;;;2.23;;
21901;SDS011;11115;46.038;14.612;2023-03-23T02:53:19;6.63;;;2.90;;
21901;SDS011;11115;46.038;14.612;2023-03-23T02:55:51;9.83;;;2.17;;
21901;SDS011;11115;46.038;14.612;2023-03-23T02:58:25;6.03;;;2.33;;
21901;SDS011;11115;46.038;14.612;2023-03-23T03:00:56;3.97;;;2.13;;
21901;SDS011;11115;46.038;14.612;2023-03-23T03:03:30;3.90;;;2.37;;
21901;SDS011;11115;46.038;14.612;2023-03-23T03:06:07;7.43;;;2.13;;
21901;SDS011;11115;46.038;14.612;2023-03-23T03:12:22;4.33;;;2.47;;
21901;SDS011;11115;46.038;14.612;2023-03-23T03:17:32;2.63;;;1.57;;
21901;SDS011;11115;46.038;14.612;2023-03-23T03:20:08;8.13;;;2.40;;
21901;SDS011;11115;46.038;14.612;2023-03-23T03:22:43;2.37;;;1.50;;
21901;SDS011;11115;46.038;14.612;2023-03-23T03:25:13;2.88;;;1.85;;
21901;SDS011;11115;46.038;14.612;2023-03-23T03:27:48;2.97;;;1.70;;
21901;SDS011;11115;46.038;14.612;2023-03-23T03:30:38;7.43;;;2.77;;
21901;SDS011;11115;46.038;14.612;2023-03-23T03:33:11;7.97;;;3.07;;
21901;SDS011;11115;46.038;14.612;2023-03-23T03:35:41;5.65;;;2.75;;
21901;SDS011;11115;46.038;14.612;2023-03-23T03:38:20;3.23;;;2.17;;
21901;SDS011;11115;46.038;14.612;2023-03-23T03:40:47;2.70;;;2.10;;
21901;SDS011;11115;46.038;14.612;2023-03-23T03:43:16;3.63;;;2.00;;
21901;SDS011;11115;46.038;14.612;2023-03-23T03:45:46;13.17;;;2.17;;
21901;SDS011;11115;46.038;14.612;2023-03-23T03:48:15;8.53;;;2.50;;
21901;SDS011;11115;46.038;14.612;2023-03-23T03:50:44;4.47;;;2.43;;
21901;SDS011;11115;46.038;14.612;2023-03-23T03:53:17;3.83;;;2.17;;
21901;SDS011;11115;46.038;14.612;2023-03-23T03:55:53;3.37;;;2.00;;
21901;SDS011;11115;46.038;14.612;2023-03-23T03:58:30;4.03;;;1.70;;
21901;SDS011;11115;46.038;14.612;2023-03-23T04:01:20;3.00;;;1.50;;
21901;SDS011;11115;46.038;14.612;2023-03-23T04:03:52;3.38;;;1.90;;
21901;SDS011;11115;46.038;14.612;2023-03-23T04:06:33;6.37;;;2.93;;
21901;SDS011;11115;46.038;14.612;2023-03-23T04:09:22;2.50;;;2.03;;
21901;SDS011;11115;46.038;14.612;2023-03-23T04:12:14;5.63;;;2.40;;
21901;SDS011;11115;46.038;14.612;2023-03-23T04:14:56;2.77;;;2.07;;
21901;SDS011;11115;46.038;14.612;2023-03-23T04:17:35;6.53;;;2.80;;
21901;SDS011;11115;46.038;14.612;2023-03-23T04:20:08;6.17;;;3.30;;
21901;SDS011;11115;46.038;14.612;2023-03-23T04:22:48;5.82;;;3.55;;
21901;SDS011;11115;46.038;14.612;2023-03-23T04:25:41;6.30;;;3.27;;
21901;SDS011;11115;46.038;14.612;2023-03-23T04:28:12;6.07;;;2.93;;
21901;SDS011;11115;46.038;14.612;2023-03-23T04:30:58;4.83;;;2.90;;
21901;SDS011;11115;46.038;14.612;2023-03-23T04:33:30;5.20;;;3.10;;
21901;SDS011;11115;46.038;14.612;2023-03-23T04:35:59;8.03;;;3.40;;
21901;SDS011;11115;46.038;14.612;2023-03-23T04:38:35;13.47;;;3.40;;
21901;SDS011;11115;46.038;14.612;2023-03-23T04:41:22;3.73;;;2.37;;
21901;SDS011;11115;46.038;14.612;2023-03-23T04:44:12;6.00;;;2.53;;
21901;SDS011;11115;46.038;14.612;2023-03-23T04:47:02;3.83;;;1.98;;
21901;SDS011;11115;46.038;14.612;2023-03-23T04:49:41;4.13;;;2.53;;
21901;SDS011;11115;46.038;14.612;2023-03-23T04:52:31;4.47;;;2.17;;
21901;SDS011;11115;46.038;14.612;2023-03-23T04:55:04;7.43;;;2.20;;
21901;SDS011;11115;46.038;14.612;2023-03-23T04:57:39;6.27;;;2.80;;
21901;SDS011;11115;46.038;14.612;2023-03-23T05:00:42;5.13;;;2.00;;
21901;SDS011;11115;46.038;14.612;2023-03-23T05:03:25;4.83;;;2.20;;
21901;SDS011;11115;46.038;14.612;2023-03-23T05:05:54;3.70;;;2.27;;
21901;SDS011;11115;46.038;14.612;2023-03-23T05:08:26;3.07;;;2.13;;
21901;SDS011;11115;46.038;14.612;2023-03-23T05:10:59;7.53;;;2.40;;
21901;SDS011;11115;46.038;14.612;2023-03-23T05:13:45;5.10;;;3.03;;
21901;SDS011;11115;46.038;14.612;2023-03-23T05:16:18;5.82;;;2.80;;
21901;SDS011;11115;46.038;14.612;2023-03-23T05:18:56;5.33;;;2.53;;
21901;SDS011;11115;46.038;14.612;2023-03-23T05:21:35;5.63;;;3.17;;
21901;SDS011;11115;46.038;14.612;2023-03-23T05:24:05;4.97;;;2.57;;
21901;SDS011;11115;46.038;14.612;2023-03-23T05:26:41;7.17;;;2.93;;
21901;SDS011;11115;46.038;14.612;2023-03-23T05:29:30;4.93;;;2.90;;
21901;SDS011;11115;46.038;14.612;2023-03-23T05:34:45;8.55;;;2.13;;
21901;SDS011;11115;46.038;14.612;2023-03-23T05:37:13;6.33;;;2.50;;
21901;SDS011;11115;46.038;14.612;2023-03-23T05:42:50;3.80;;;1.97;;
21901;SDS011;11115;46.038;14.612;2023-03-23T05:45:31;2.93;;;2.30;;
21901;SDS011;11115;46.038;14.612;2023-03-23T05:48:00;4.60;;;2.47;;
21901;SDS011;11115;46.038;14.612;2023-03-23T05:50:32;9.87;;;4.00;;
21901;SDS011;11115;46.038;14.612;2023-03-23T05:53:02;6.67;;;2.60;;
21901;SDS011;11115;46.038;14.612;2023-03-23T05:55:35;9.73;;;3.13;;
21901;SDS011;11115;46.038;14.612;2023-03-23T05:58:20;8.17;;;3.20;;
21901;SDS011;11115;46.038;14.612;2023-03-23T06:00:51;5.23;;;2.93;;
21901;SDS011;11115;46.038;14.612;2023-03-23T06:03:27;6.77;;;2.63;;
21901;SDS011;11115;46.038;14.612;2023-03-23T06:06:13;10.80;;;3.27;;
21901;SDS011;11115;46.038;14.612;2023-03-23T06:08:55;4.15;;;2.50;;
21901;SDS011;11115;46.038;14.612;2023-03-23T06:11:37;4.90;;;2.30;;
21901;SDS011;11115;46.038;14.612;2023-03-23T06:14:30;4.20;;;2.67;;
21901;SDS011;11115;46.038;14.612;2023-03-23T06:17:02;10.30;;;3.30;;
21901;SDS011;11115;46.038;14.612;2023-03-23T06:19:37;4.40;;;2.37;;
21901;SDS011;11115;46.038;14.612;2023-03-23T06:22:11;5.37;;;2.60;;
21901;SDS011;11115;46.038;14.612;2023-03-23T06:24:57;12.97;;;4.40;;
21901;SDS011;11115;46.038;14.612;2023-03-23T06:27:35;23.63;;;8.03;;
21901;SDS011;11115;46.038;14.612;2023-03-23T06:30:07;10.13;;;4.27;;
21901;SDS011;11115;46.038;14.612;2023-03-23T06:32:39;8.37;;;3.47;;
21901;SDS011;11115;46.038;14.612;2023-03-23T06:35:19;10.97;;;3.20;;
21901;SDS011;11115;46.038;14.612;2023-03-23T06:37:55;7.80;;;3.50;;
21901;SDS011;11115;46.038;14.612;2023-03-23T06:40:45;8.57;;;4.10;;
21901;SDS011;11115;46.038;14.612;2023-03-23T06:43:15;8.73;;;4.20;;
21901;SDS011;11115;46.038;14.612;2023-03-23T06:46:06;7.37;;;4.33;;
21901;SDS011;11115;46.038;14.612;2023-03-23T06:49:07;8.33;;;3.63;;
21901;SDS011;11115;46.038;14.612;2023-03-23T06:51:48;12.60;;;4.40;;
21901;SDS011;11115;46.038;14.612;2023-03-23T06:54:18;7.35;;;4.28;;
21901;SDS011;11115;46.038;14.612;2023-03-23T06:56:48;11.55;;;4.43;;
21901;SDS011;11115;46.038;14.612;2023-03-23T06:59:19;8.68;;;4.45;;
21901;SDS011;11115;46.038;14.612;2023-03-23T07:01:51;9.70;;;5.05;;
21901;SDS011;11115;46.038;14.612;2023-03-23T07:04:22;6.23;;;3.97;;
21901;SDS011;11115;46.038;14.612;2023-03-23T07:07:01;7.40;;;4.17;;
21901;SDS011;11115;46.038;14.612;2023-03-23T07:09:38;7.83;;;3.90;;
21901;SDS011;11115;46.038;14.612;2023-03-23T07:12:09;6.85;;;4.05;;
21901;SDS011;11115;46.038;14.612;2023-03-23T07:14:46;8.57;;;5.13;;
21901;SDS011;11115;46.038;14.612;2023-03-23T07:17:13;7.10;;;4.00;;
21901;SDS011;11115;46.038;14.612;2023-03-23T07:20:01;7.57;;;3.67;;
21901;SDS011;11115;46.038;14.612;2023-03-23T07:22:32;7.43;;;4.17;;
21901;SDS011;11115;46.038;14.612;2023-03-23T07:25:20;6.47;;;3.83;;
21901;SDS011;11115;46.038;14.612;2023-03-23T07:27:53;8.87;;;4.77;;
21901;SDS011;11115;46.038;14.612;2023-03-23T07:30:23;7.97;;;4.03;;
21901;SDS011;11115;46.038;14.612;2023-03-23T07:33:06;7.07;;;4.00;;
21901;SDS011;11115;46.038;14.612;2023-03-23T07:38:26;7.97;;;3.60;;
21901;SDS011;11115;46.038;14.612;2023-03-23T07:40:59;10.67;;;4.27;;
21901;SDS011;11115;46.038;14.612;2023-03-23T07:43:36;10.33;;;4.53;;
21901;SDS011;11115;46.038;14.612;2023-03-23T07:46:10;6.23;;;3.70;;
21901;SDS011;11115;46.038;14.612;2023-03-23T07:48:57;5.23;;;3.17;;
21901;SDS011;11115;46.038;14.612;2023-03-23T07:51:34;7.00;;;3.60;;
21901;SDS011;11115;46.038;14.612;2023-03-23T07:54:06;5.83;;;3.83;;
21901;SDS011;11115;46.038;14.612;2023-03-23T07:56:54;6.37;;;3.70;;
21901;SDS011;11115;46.038;14.612;2023-03-23T07:59:33;7.13;;;3.73;;
21901;SDS011;11115;46.038;14.612;2023-03-23T08:02:04;6.70;;;3.40;;
21901;SDS011;11115;46.038;14.612;2023-03-23T08:04:52;8.60;;;3.57;;
21901;SDS011;11115;46.038;14.612;2023-03-23T08:08:00;7.77;;;3.83;;
21901;SDS011;11115;46.038;14.612;2023-03-23T08:10:58;6.83;;;4.23;;
21901;SDS011;11115;46.038;14.612;2023-03-23T08:13:52;6.13;;;3.60;;
21901;SDS011;11115;46.038;14.612;2023-03-23T08:16:47;7.00;;;4.10;;
21901;SDS011;11115;46.038;14.612;2023-03-23T08:19:34;5.33;;;2.90;;
21901;SDS011;11115;46.038;14.612;2023-03-23T08:22:21;7.80;;;3.47;;
21901;SDS011;11115;46.038;14.612;2023-03-23T08:25:32;13.93;;;3.77;;
21901;SDS011;11115;46.038;14.612;2023-03-23T08:28:23;8.38;;;4.28;;
21901;SDS011;11115;46.038;14.612;2023-03-23T08:31:10;6.67;;;3.63;;
21901;SDS011;11115;46.038;14.612;2023-03-23T08:34:16;6.57;;;3.17;;
21901;SDS011;11115;46.038;14.612;2023-03-23T08:37:04;7.90;;;4.33;;
21901;SDS011;11115;46.038;14.612;2023-03-23T08:40:14;8.40;;;3.63;;
21901;SDS011;11115;46.038;14.612;2023-03-23T08:43:19;5.07;;;3.30;;
21901;SDS011;11115;46.038;14.612;2023-03-23T08:46:09;6.80;;;3.77;;
21901;SDS011;11115;46.038;14.612;2023-03-23T08:49:04;4.73;;;3.37;;
21901;SDS011;11115;46.038;14.612;2023-03-23T08:51:41;5.93;;;2.87;;
21901;SDS011;11115;46.038;14.612;2023-03-23T08:54:27;5.30;;;2.90;;
21901;SDS011;11115;46.038;14.612;2023-03-23T08:57:18;5.53;;;2.67;;
21901;SDS011;11115;46.038;14.612;2023-03-23T08:59:59;5.27;;;3.00;;
21901;SDS011;11115;46.038;14.612;2023-03-23T09:02:55;3.47;;;2.23;;
21901;SDS011;11115;46.038;14.612;2023-03-23T09:05:59;4.10;;;2.10;;
21901;SDS011;11115;46.038;14.612;2023-03-23T09:08:50;3.10;;;2.10;;
21901;SDS011;11115;46.038;14.612;2023-03-23T09:11:23;6.07;;;3.10;;
21901;SDS011;11115;46.038;14.612;2023-03-23T09:13:51;5.43;;;2.73;;
21901;SDS011;11115;46.038;14.612;2023-03-23T09:16:22;5.47;;;3.38;;
21901;SDS011;11115;46.038;14.612;2023-03-23T09:18:53;3.42;;;2.20;;
21901;SDS011;11115;46.038;14.612;2023-03-23T09:21:25;6.20;;;3.17;;
21901;SDS011;11115;46.038;14.612;2023-03-23T09:23:53;3.70;;;2.80;;
21901;SDS011;11115;46.038;14.612;2023-03-23T09:26:25;4.47;;;2.53;;
21901;SDS011;11115;46.038;14.612;2023-03-23T09:28:55;6.07;;;2.78;;
21901;SDS011;11115;46.038;14.612;2023-03-23T09:31:24;3.47;;;2.10;;
21901;SDS011;11115;46.038;14.612;2023-03-23T09:34:05;5.50;;;2.90;;
21901;SDS011;11115;46.038;14.612;2023-03-23T09:36:36;3.88;;;2.65;;
21901;SDS011;11115;46.038;14.612;2023-03-23T09:39:05;3.77;;;2.70;;
21901;SDS011;11115;46.038;14.612;2023-03-23T09:42:06;5.38;;;2.95;;
21901;SDS011;11115;46.038;14.612;2023-03-23T09:45:12;5.72;;;2.72;;
21901;SDS011;11115;46.038;14.612;2023-03-23T09:50:57;5.93;;;2.97;;
21901;SDS011;11115;46.038;14.612;2023-03-23T09:53:37;5.37;;;2.90;;
21901;SDS011;11115;46.038;14.612;2023-03-23T09:56:13;4.50;;;3.03;;
21901;SDS011;11115;46.038;14.612;2023-03-23T10:01:51;4.07;;;2.43;;
21901;SDS011;11115;46.038;14.612;2023-03-23T10:07:47;3.33;;;2.60;;
21901;SDS011;11115;46.038;14.612;2023-03-23T10:11:17;5.40;;;2.97;;
21901;SDS011;11115;46.038;14.612;2023-03-23T10:16:51;6.82;;;2.72;;
21901;SDS011;11115;46.038;14.612;2023-03-23T10:22:33;5.43;;;3.10;;
21901;SDS011;11115;46.038;14.612;2023-03-23T10:25:18;10.40;;;3.53;;
21901;SDS011;11115;46.038;14.612;2023-03-23T10:27:59;9.90;;;3.10;;
21901;SDS011;11115;46.038;14.612;2023-03-23T10:30:55;3.87;;;2.53;;
21901;SDS011;11115;46.038;14.612;2023-03-23T10:36:30;11.05;;;3.50;;
21901;SDS011;11115;46.038;14.612;2023-03-23T10:39:19;4.10;;;2.78;;
21901;SDS011;11115;46.038;14.612;2023-03-23T10:41:51;3.75;;;2.67;;
21901;SDS011;11115;46.038;14.612;2023-03-23T10:44:34;6.10;;;3.07;;
21901;SDS011;11115;46.038;14.612;2023-03-23T10:47:05;5.72;;;2.83;;
21901;SDS011;11115;46.038;14.612;2023-03-23T10:49:42;5.68;;;3.13;;
21901;SDS011;11115;46.038;14.612;2023-03-23T10:55:08;4.20;;;3.05;;
21901;SDS011;11115;46.038;14.612;2023-03-23T10:58:37;4.43;;;2.53;;
21901;SDS011;11115;46.038;14.612;2023-03-23T11:01:10;5.35;;;2.92;;
21901;SDS011;11115;46.038;14.612;2023-03-23T11:03:42;4.25;;;2.35;;
21901;SDS011;11115;46.038;14.612;2023-03-23T11:06:22;3.05;;;2.75;;
21901;SDS011;11115;46.038;14.612;2023-03-23T11:09:08;4.22;;;3.13;;
21901;SDS011;11115;46.038;14.612;2023-03-23T11:11:48;6.03;;;2.38;;
21901;SDS011;11115;46.038;14.612;2023-03-23T11:14:28;2.83;;;1.92;;
21901;SDS011;11115;46.038;14.612;2023-03-23T11:17:04;2.83;;;1.55;;
21901;SDS011;11115;46.038;14.612;2023-03-23T11:19:46;4.00;;;1.38;;
21901;SDS011;11115;46.038;14.612;2023-03-23T11:22:19;5.95;;;0.90;;
21901;SDS011;11115;46.038;14.612;2023-03-23T11:25:03;1.83;;;1.23;;
21901;SDS011;11115;46.038;14.612;2023-03-23T11:27:35;1.00;;;0.90;;
21901;SDS011;11115;46.038;14.612;2023-03-23T11:30:10;2.58;;;1.20;;
21901;SDS011;11115;46.038;14.612;2023-03-23T11:32:51;1.40;;;1.30;;
21901;SDS011;11115;46.038;14.612;2023-03-23T11:35:23;2.92;;;1.48;;
21901;SDS011;11115;46.038;14.612;2023-03-23T11:37:58;1.95;;;1.00;;
21901;SDS011;11115;46.038;14.612;2023-03-23T11:40:29;3.58;;;1.02;;
21901;SDS011;11115;46.038;14.612;2023-03-23T11:43:00;2.13;;;0.75;;
21901;SDS011;11115;46.038;14.612;2023-03-23T11:45:39;1.48;;;1.13;;
21901;SDS011;11115;46.038;14.612;2023-03-23T11:51:11;3.45;;;0.93;;
21901;SDS011;11115;46.038;14.612;2023-03-23T11:54:02;1.88;;;1.33;;
21901;SDS011;11115;46.038;14.612;2023-03-23T11:56:42;1.15;;;0.82;;
21901;SDS011;11115;46.038;14.612;2023-03-23T11:59:34;1.10;;;0.77;;
21901;SDS011;11115;46.038;14.612;2023-03-23T12:02:19;1.50;;;0.88;;
21901;SDS011;11115;46.038;14.612;2023-03-23T12:08:16;1.15;;;1.05;;
21901;SDS011;11115;46.038;14.612;2023-03-23T12:16:53;2.65;;;0.98;;
21901;SDS011;11115;46.038;14.612;2023-03-23T12:28:31;1.95;;;1.05;;
21901;SDS011;11115;46.038;14.612;2023-03-23T12:37:02;0.52;;;0.50;;
21901;SDS011;11115;46.038;14.612;2023-03-23T12:46:21;1.15;;;0.80;;
21901;SDS011;11115;46.038;14.612;2023-03-23T12:49:08;1.73;;;1.10;;
21901;SDS011;11115;46.038;14.612;2023-03-23T12:52:27;0.77;;;0.77;;
21901;SDS011;11115;46.038;14.612;2023-03-23T12:55:49;6.20;;;0.95;;
21901;SDS011;11115;46.038;14.612;2023-03-23T12:58:26;1.15;;;1.00;;
21901;SDS011;11115;46.038;14.612;2023-03-23T13:01:14;1.65;;;1.20;;
21901;SDS011;11115;46.038;14.612;2023-03-23T13:04:09;0.77;;;0.65;;
21901;SDS011;11115;46.038;14.612;2023-03-23T13:06:45;1.38;;;0.95;;
21901;SDS011;11115;46.038;14.612;2023-03-23T13:17:37;1.67;;;0.90;;
21901;SDS011;11115;46.038;14.612;2023-03-23T13:20:41;3.25;;;0.57;;
21901;SDS011;11115;46.038;14.612;2023-03-23T13:23:45;1.85;;;1.00;;
21901;SDS011;11115;46.038;14.612;2023-03-23T13:26:18;0.63;;;0.63;;
21901;SDS011;11115;46.038;14.612;2023-03-23T13:31:41;1.75;;;0.80;;
21901;SDS011;11115;46.038;14.612;2023-03-23T13:34:18;0.57;;;0.50;;
21901;SDS011;11115;46.038;14.612;2023-03-23T13:36:58;0.50;;;0.50;;
21901;SDS011;11115;46.038;14.612;2023-03-23T13:40:13;1.20;;;0.60;;
21901;SDS011;11115;46.038;14.612;2023-03-23T13:42:49;1.15;;;0.65;;
21901;SDS011;11115;46.038;14.612;2023-03-23T13:48:02;1.38;;;0.50;;
21901;SDS011;11115;46.038;14.612;2023-03-23T13:50:55;0.65;;;0.52;;
21901;SDS011;11115;46.038;14.612;2023-03-23T13:53:31;0.90;;;0.75;;
21901;SDS011;11115;46.038;14.612;2023-03-23T13:56:15;1.20;;;0.88;;
21901;SDS011;11115;46.038;14.612;2023-03-23T14:05:29;1.90;;;0.68;;
21901;SDS011;11115;46.038;14.612;2023-03-23T14:08:03;0.88;;;0.65;;
21901;SDS011;11115;46.038;14.612;2023-03-23T14:13:50;1.60;;;0.77;;
21901;SDS011;11115;46.038;14.612;2023-03-23T14:16:48;0.47;;;0.47;;
21901;SDS011;11115;46.038;14.612;2023-03-23T14:19:27;1.20;;;0.52;;
21901;SDS011;11115;46.038;14.612;2023-03-23T14:21:58;3.67;;;0.80;;
21901;SDS011;11115;46.038;14.612;2023-03-23T14:24:39;1.08;;;0.60;;
21901;SDS011;11115;46.038;14.612;2023-03-23T14:29:36;0.45;;;0.45;;
21901;SDS011;11115;46.038;14.612;2023-03-23T14:32:06;1.00;;;0.57;;
21901;SDS011;11115;46.038;14.612;2023-03-23T14:34:37;0.65;;;0.50;;
21901;SDS011;11115;46.038;14.612;2023-03-23T14:37:12;1.30;;;0.80;;
21901;SDS011;11115;46.038;14.612;2023-03-23T14:39:53;0.88;;;0.63;;
21901;SDS011;11115;46.038;14.612;2023-03-23T14:42:28;1.40;;;0.60;;
21901;SDS011;11115;46.038;14.612;2023-03-23T14:44:59;1.95;;;1.10;;
21901;SDS011;11115;46.038;14.612;2023-03-23T14:47:43;0.70;;;0.50;;
21901;SDS011;11115;46.038;14.612;2023-03-23T14:50:48;1.20;;;0.73;;
21901;SDS011;11115;46.038;14.612;2023-03-23T14:53:39;0.80;;;0.45;;
21901;SDS011;11115;46.038;14.612;2023-03-23T14:56:22;1.23;;;0.98;;
21901;SDS011;11115;46.038;14.612;2023-03-23T14:58:54;0.75;;;0.73;;
21901;SDS011;11115;46.038;14.612;2023-03-23T15:01:30;0.57;;;0.43;;
21901;SDS011;11115;46.038;14.612;2023-03-23T15:04:16;1.77;;;0.80;;
21901;SDS011;11115;46.038;14.612;2023-03-23T15:06:49;2.07;;;1.00;;
21901;SDS011;11115;46.038;14.612;2023-03-23T15:09:31;0.73;;;0.50;;
21901;SDS011;11115;46.038;14.612;2023-03-23T15:12:01;1.20;;;0.80;;
21901;SDS011;11115;46.038;14.612;2023-03-23T15:14:48;0.75;;;0.63;;
21901;SDS011;11115;46.038;14.612;2023-03-23T15:17:24;1.05;;;1.00;;
21901;SDS011;11115;46.038;14.612;2023-03-23T15:20:26;0.25;;;0.25;;
21901;SDS011;11115;46.038;14.612;2023-03-23T15:23:05;1.23;;;0.77;;
21901;SDS011;11115;46.038;14.612;2023-03-23T15:25:47;11.13;;;1.23;;
21901;SDS011;11115;46.038;14.612;2023-03-23T15:28:30;1.40;;;0.70;;
21901;SDS011;11115;46.038;14.612;2023-03-23T15:31:01;0.43;;;0.43;;
21901;SDS011;11115;46.038;14.612;2023-03-23T15:33:36;1.05;;;0.60;;
21901;SDS011;11115;46.038;14.612;2023-03-23T15:36:19;2.28;;;1.38;;
21901;SDS011;11115;46.038;14.612;2023-03-23T15:38:49;0.77;;;0.73;;
21901;SDS011;11115;46.038;14.612;2023-03-23T15:41:26;0.77;;;0.70;;
21901;SDS011;11115;46.038;14.612;2023-03-23T15:44:11;0.93;;;0.70;;
21901;SDS011;11115;46.038;14.612;2023-03-23T15:47:04;1.38;;;0.80;;
21901;SDS011;11115;46.038;14.612;2023-03-23T15:49:45;1.08;;;0.65;;
21901;SDS011;11115;46.038;14.612;2023-03-23T15:52:16;0.50;;;0.40;;
21901;SDS011;11115;46.038;14.612;2023-03-23T15:54:45;0.60;;;0.60;;
21901;SDS011;11115;46.038;14.612;2023-03-23T15:57:14;0.60;;;0.60;;
21901;SDS011;11115;46.038;14.612;2023-03-23T15:59:44;3.65;;;0.60;;
21901;SDS011;11115;46.038;14.612;2023-03-23T16:02:22;0.45;;;0.43;;
21901;SDS011;11115;46.038;14.612;2023-03-23T16:04:57;1.10;;;0.60;;
21901;SDS011;11115;46.038;14.612;2023-03-23T16:07:29;0.63;;;0.47;;
21901;SDS011;11115;46.038;14.612;2023-03-23T16:10:00;1.30;;;0.77;;
21901;SDS011;11115;46.038;14.612;2023-03-23T16:12:33;2.17;;;0.50;;
21901;SDS011;11115;46.038;14.612;2023-03-23T16:15:04;5.20;;;0.60;;
21901;SDS011;11115;46.038;14.612;2023-03-23T16:17:43;1.05;;;0.60;;
21901;SDS011;11115;46.038;14.612;2023-03-23T16:20:20;1.50;;;0.60;;
21901;SDS011;11115;46.038;14.612;2023-03-23T16:25:21;0.70;;;0.70;;
21901;SDS011;11115;46.038;14.612;2023-03-23T16:27:57;7.05;;;1.10;;
21901;SDS011;11115;46.038;14.612;2023-03-23T16:30:36;1.00;;;0.68;;
21901;SDS011;11115;46.038;14.612;2023-03-23T16:33:12;2.35;;;0.70;;
21901;SDS011;11115;46.038;14.612;2023-03-23T16:35:41;0.60;;;0.60;;
21901;SDS011;11115;46.038;14.612;2023-03-23T16:38:13;1.15;;;0.52;;
21901;SDS011;11115;46.038;14.612;2023-03-23T16:40:45;0.90;;;0.80;;
21901;SDS011;11115;46.038;14.612;2023-03-23T16:43:21;1.48;;;0.93;;
21901;SDS011;11115;46.038;14.612;2023-03-23T16:45:50;1.08;;;0.63;;
21901;SDS011;11115;46.038;14.612;2023-03-23T16:48:22;0.80;;;0.63;;
21901;SDS011;11115;46.038;14.612;2023-03-23T16:50:53;1.63;;;0.82;;
21901;SDS011;11115;46.038;14.612;2023-03-23T16:53:29;1.42;;;0.80;;
21901;SDS011;11115;46.038;14.612;2023-03-23T16:56:13;1.25;;;0.80;;
21901;SDS011;11115;46.038;14.612;2023-03-23T16:58:42;1.27;;;0.68;;
21901;SDS011;11115;46.038;14.612;2023-03-23T17:01:12;1.97;;;0.97;;
21901;SDS011;11115;46.038;14.612;2023-03-23T17:03:45;1.15;;;0.52;;
21901;SDS011;11115;46.038;14.612;2023-03-23T17:06:15;1.60;;;0.85;;
21901;SDS011;11115;46.038;14.612;2023-03-23T17:08:49;1.27;;;0.93;;
21901;SDS011;11115;46.038;14.612;2023-03-23T17:11:20;1.38;;;0.73;;
21901;SDS011;11115;46.038;14.612;2023-03-23T17:13:58;1.02;;;0.70;;
21901;SDS011;11115;46.038;14.612;2023-03-23T17:16:30;1.75;;;0.70;;
21901;SDS011;11115;46.038;14.612;2023-03-23T17:18:59;1.02;;;0.73;;
21901;SDS011;11115;46.038;14.612;2023-03-23T17:21:31;3.40;;;1.50;;
21901;SDS011;11115;46.038;14.612;2023-03-23T17:24:07;2.40;;;1.10;;
21901;SDS011;11115;46.038;14.612;2023-03-23T17:26:39;8.73;;;2.63;;
21901;SDS011;11115;46.038;14.612;2023-03-23T17:29:21;4.43;;;1.45;;
21901;SDS011;11115;46.038;14.612;2023-03-23T17:32:00;1.13;;;0.93;;
21901;SDS011;11115;46.038;14.612;2023-03-23T17:37:15;2.27;;;1.03;;
21901;SDS011;11115;46.038;14.612;2023-03-23T17:39:46;2.38;;;1.13;;
21901;SDS011;11115;46.038;14.612;2023-03-23T17:42:21;1.30;;;0.80;;